sensor_id;sensor_type;location;lat;lon;timestamp;temperature;humidity
4501;DHT22;2263;54.654;9.410;2023-04-15T00:02:17;9.70;91.30
4501;DHT22;2263;54.654;9.410;2023-04-15T00:04:46;9.70;91.30
4501;DHT22;2263;54.654;9.410;2023-04-15T00:07:14;9.70;91.50
4501;DHT22;2263;54.654;9.410;2023-04-15T00:09:42;9.70;91.50
4501;DHT22;2263;54.654;9.410;2023-04-15T00:12:11;9.70;91.30
4501;DHT22;2263;54.654;9.410;2023-04-15T00:14:39;9.70;91.40
4501;DHT22;2263;54.654;9.410;2023-04-15T00:17:07;9.70;91.50
4501;DHT22;2263;54.654;9.410;2023-04-15T00:19:34;9.70;91.40
4501;DHT22;2263;54.654;9.410;2023-04-15T00:22:03;9.70;91.50
4501;DHT22;2263;54.654;9.410;2023-04-15T00:24:30;9.70;91.50
4501;DHT22;2263;54.654;9.410;2023-04-15T00:26:59;9.70;91.50
4501;DHT22;2263;54.654;9.410;2023-04-15T00:29:26;9.70;91.60
4501;DHT22;2263;54.654;9.410;2023-04-15T00:31:54;9.70;91.60
4501;DHT22;2263;54.654;9.410;2023-04-15T00:34:23;9.60;91.50
4501;DHT22;2263;54.654;9.410;2023-04-15T00:36:50;9.60;91.50
4501;DHT22;2263;54.654;9.410;2023-04-15T00:39:19;9.60;91.50
4501;DHT22;2263;54.654;9.410;2023-04-15T00:41:46;9.60;91.50
4501;DHT22;2263;54.654;9.410;2023-04-15T00:44:14;9.60;91.50
4501;DHT22;2263;54.654;9.410;2023-04-15T00:46:42;9.60;91.50
4501;DHT22;2263;54.654;9.410;2023-04-15T00:49:11;9.60;91.60
4501;DHT22;2263;54.654;9.410;2023-04-15T00:51:39;9.60;91.60
4501;DHT22;2263;54.654;9.410;2023-04-15T00:54:07;9.60;91.60
4501;DHT22;2263;54.654;9.410;2023-04-15T00:56:35;9.60;91.70
4501;DHT22;2263;54.654;9.410;2023-04-15T00:59:05;9.60;91.60
4501;DHT22;2263;54.654;9.410;2023-04-15T01:01:34;9.60;91.70
4501;DHT22;2263;54.654;9.410;2023-04-15T01:04:03;9.60;91.70
4501;DHT22;2263;54.654;9.410;2023-04-15T01:06:31;9.60;91.70
4501;DHT22;2263;54.654;9.410;2023-04-15T01:08:59;9.60;91.70
4501;DHT22;2263;54.654;9.410;2023-04-15T01:11:30;9.60;91.70
4501;DHT22;2263;54.654;9.410;2023-04-15T01:14:00;9.50;91.70
4501;DHT22;2263;54.654;9.410;2023-04-15T01:16:29;9.60;91.80
4501;DHT22;2263;54.654;9.410;2023-04-15T01:18:56;9.50;91.70
4501;DHT22;2263;54.654;9.410;2023-04-15T01:21:24;9.50;91.70
4501;DHT22;2263;54.654;9.410;2023-04-15T01:23:54;9.60;91.80
4501;DHT22;2263;54.654;9.410;2023-04-15T01:26:23;9.50;91.80
4501;DHT22;2263;54.654;9.410;2023-04-15T01:28:51;9.50;91.80
4501;DHT22;2263;54.654;9.410;2023-04-15T01:31:18;9.50;91.80
4501;DHT22;2263;54.654;9.410;2023-04-15T01:33:46;9.50;91.80
4501;DHT22;2263;54.654;9.410;2023-04-15T01:36:13;9.50;91.80
4501;DHT22;2263;54.654;9.410;2023-04-15T01:38:41;9.50;91.90
4501;DHT22;2263;54.654;9.410;2023-04-15T01:41:08;9.50;91.90
4501;DHT22;2263;54.654;9.410;2023-04-15T01:43:36;9.50;91.90
4501;DHT22;2263;54.654;9.410;2023-04-15T01:46:04;9.50;91.90
4501;DHT22;2263;54.654;9.410;2023-04-15T01:48:32;9.50;91.90
4501;DHT22;2263;54.654;9.410;2023-04-15T01:51:00;9.50;91.90
4501;DHT22;2263;54.654;9.410;2023-04-15T01:53:27;9.50;91.90
4501;DHT22;2263;54.654;9.410;2023-04-15T01:55:55;9.50;91.90
4501;DHT22;2263;54.654;9.410;2023-04-15T01:58:23;9.40;91.90
4501;DHT22;2263;54.654;9.410;2023-04-15T02:00:51;9.50;92.00
4501;DHT22;2263;54.654;9.410;2023-04-15T02:03:18;9.40;91.90
4501;DHT22;2263;54.654;9.410;2023-04-15T02:05:46;9.40;91.90
4501;DHT22;2263;54.654;9.410;2023-04-15T02:08:14;9.40;91.90
4501;DHT22;2263;54.654;9.410;2023-04-15T02:10:41;9.40;91.90
4501;DHT22;2263;54.654;9.410;2023-04-15T02:13:09;9.40;92.00
4501;DHT22;2263;54.654;9.410;2023-04-15T02:15:37;9.40;92.00
4501;DHT22;2263;54.654;9.410;2023-04-15T02:18:04;9.40;92.00
4501;DHT22;2263;54.654;9.410;2023-04-15T02:23:43;9.40;92.00
4501;DHT22;2263;54.654;9.410;2023-04-15T02:26:10;9.40;92.10
4501;DHT22;2263;54.654;9.410;2023-04-15T02:28:38;9.40;92.10
4501;DHT22;2263;54.654;9.410;2023-04-15T02:31:06;9.40;92.10
4501;DHT22;2263;54.654;9.410;2023-04-15T02:33:34;9.40;92.10
4501;DHT22;2263;54.654;9.410;2023-04-15T02:36:03;9.40;92.10
4501;DHT22;2263;54.654;9.410;2023-04-15T02:38:31;9.40;92.10
4501;DHT22;2263;54.654;9.410;2023-04-15T02:40:58;9.40;92.10
4501;DHT22;2263;54.654;9.410;2023-04-15T02:43:26;9.40;92.10
4501;DHT22;2263;54.654;9.410;2023-04-15T02:45:53;9.30;92.10
4501;DHT22;2263;54.654;9.410;2023-04-15T02:48:21;9.30;92.10
4501;DHT22;2263;54.654;9.410;2023-04-15T02:50:48;9.30;92.10
4501;DHT22;2263;54.654;9.410;2023-04-15T02:53:16;9.30;92.20
4501;DHT22;2263;54.654;9.410;2023-04-15T02:55:44;9.30;92.20
4501;DHT22;2263;54.654;9.410;2023-04-15T02:58:11;9.30;92.20
4501;DHT22;2263;54.654;9.410;2023-04-15T03:00:39;9.30;92.20
4501;DHT22;2263;54.654;9.410;2023-04-15T03:03:06;9.30;92.20
4501;DHT22;2263;54.654;9.410;2023-04-15T03:05:35;9.30;92.20
4501;DHT22;2263;54.654;9.410;2023-04-15T03:08:06;9.30;92.20
4501;DHT22;2263;54.654;9.410;2023-04-15T03:10:34;9.30;92.20
4501;DHT22;2263;54.654;9.410;2023-04-15T03:13:01;9.30;92.20
4501;DHT22;2263;54.654;9.410;2023-04-15T03:15:29;9.30;92.20
4501;DHT22;2263;54.654;9.410;2023-04-15T03:17:56;9.30;92.30
4501;DHT22;2263;54.654;9.410;2023-04-15T03:20:24;9.30;92.30
4501;DHT22;2263;54.654;9.410;2023-04-15T03:22:52;9.30;92.30
4501;DHT22;2263;54.654;9.410;2023-04-15T03:25:19;9.30;92.30
4501;DHT22;2263;54.654;9.410;2023-04-15T03:27:47;9.30;92.30
4501;DHT22;2263;54.654;9.410;2023-04-15T03:30:15;9.30;92.30
4501;DHT22;2263;54.654;9.410;2023-04-15T03:32:43;9.30;92.30
4501;DHT22;2263;54.654;9.410;2023-04-15T03:35:10;9.20;93.20
4501;DHT22;2263;54.654;9.410;2023-04-15T03:37:38;9.20;92.80
4501;DHT22;2263;54.654;9.410;2023-04-15T03:40:06;9.20;92.70
4501;DHT22;2263;54.654;9.410;2023-04-15T03:42:34;9.20;92.70
4501;DHT22;2263;54.654;9.410;2023-04-15T03:45:02;9.20;92.70
4501;DHT22;2263;54.654;9.410;2023-04-15T03:47:30;9.20;92.70
4501;DHT22;2263;54.654;9.410;2023-04-15T03:49:58;9.20;92.70
4501;DHT22;2263;54.654;9.410;2023-04-15T03:52:25;9.10;92.60
4501;DHT22;2263;54.654;9.410;2023-04-15T03:54:53;9.10;92.70
4501;DHT22;2263;54.654;9.410;2023-04-15T03:57:20;9.20;92.70
4501;DHT22;2263;54.654;9.410;2023-04-15T03:59:48;9.10;92.60
4501;DHT22;2263;54.654;9.410;2023-04-15T04:02:15;9.10;92.70
4501;DHT22;2263;54.654;9.410;2023-04-15T04:04:43;9.10;92.70
4501;DHT22;2263;54.654;9.410;2023-04-15T04:07:20;9.10;92.70
4501;DHT22;2263;54.654;9.410;2023-04-15T04:09:49;9.10;92.70
4501;DHT22;2263;54.654;9.410;2023-04-15T04:12:17;9.10;92.70
4501;DHT22;2263;54.654;9.410;2023-04-15T04:14:45;9.10;92.70
4501;DHT22;2263;54.654;9.410;2023-04-15T04:17:13;9.10;92.80
4501;DHT22;2263;54.654;9.410;2023-04-15T04:19:40;9.10;92.80
4501;DHT22;2263;54.654;9.410;2023-04-15T04:22:08;9.10;92.80
4501;DHT22;2263;54.654;9.410;2023-04-15T04:24:35;9.10;92.80
4501;DHT22;2263;54.654;9.410;2023-04-15T04:27:03;9.10;92.80
4501;DHT22;2263;54.654;9.410;2023-04-15T04:29:30;9.10;92.80
4501;DHT22;2263;54.654;9.410;2023-04-15T04:31:58;9.10;92.80
4501;DHT22;2263;54.654;9.410;2023-04-15T04:34:25;9.10;92.80
4501;DHT22;2263;54.654;9.410;2023-04-15T04:36:53;9.10;92.90
4501;DHT22;2263;54.654;9.410;2023-04-15T04:39:21;9.10;92.90
4501;DHT22;2263;54.654;9.410;2023-04-15T04:41:49;9.00;92.90
4501;DHT22;2263;54.654;9.410;2023-04-15T04:44:18;9.00;92.90
4501;DHT22;2263;54.654;9.410;2023-04-15T04:46:45;9.00;92.90
4501;DHT22;2263;54.654;9.410;2023-04-15T04:49:13;9.00;92.90
4501;DHT22;2263;54.654;9.410;2023-04-15T04:51:40;9.00;92.90
4501;DHT22;2263;54.654;9.410;2023-04-15T04:54:08;9.00;92.90
4501;DHT22;2263;54.654;9.410;2023-04-15T04:56:36;9.00;93.00
4501;DHT22;2263;54.654;9.410;2023-04-15T04:59:05;9.00;92.90
4501;DHT22;2263;54.654;9.410;2023-04-15T05:01:34;9.00;93.00
4501;DHT22;2263;54.654;9.410;2023-04-15T05:04:02;9.00;93.00
4501;DHT22;2263;54.654;9.410;2023-04-15T05:06:32;9.00;93.00
4501;DHT22;2263;54.654;9.410;2023-04-15T05:08:59;9.00;93.00
4501;DHT22;2263;54.654;9.410;2023-04-15T05:11:28;9.00;93.00
4501;DHT22;2263;54.654;9.410;2023-04-15T05:13:55;9.00;93.10
4501;DHT22;2263;54.654;9.410;2023-04-15T05:16:24;9.00;93.10
4501;DHT22;2263;54.654;9.410;2023-04-15T05:18:52;9.00;93.10
4501;DHT22;2263;54.654;9.410;2023-04-15T05:21:20;9.00;93.10
4501;DHT22;2263;54.654;9.410;2023-04-15T05:23:48;9.00;93.10
4501;DHT22;2263;54.654;9.410;2023-04-15T05:26:15;9.00;93.10
4501;DHT22;2263;54.654;9.410;2023-04-15T05:28:43;9.00;93.10
4501;DHT22;2263;54.654;9.410;2023-04-15T05:31:11;9.00;93.10
4501;DHT22;2263;54.654;9.410;2023-04-15T05:33:39;9.00;93.10
4501;DHT22;2263;54.654;9.410;2023-04-15T05:36:06;9.00;93.20
4501;DHT22;2263;54.654;9.410;2023-04-15T05:38:34;9.00;93.10
4501;DHT22;2263;54.654;9.410;2023-04-15T05:41:02;9.00;93.10
4501;DHT22;2263;54.654;9.410;2023-04-15T05:43:29;9.00;93.10
4501;DHT22;2263;54.654;9.410;2023-04-15T05:45:57;9.00;93.20
4501;DHT22;2263;54.654;9.410;2023-04-15T05:48:25;9.00;93.10
4501;DHT22;2263;54.654;9.410;2023-04-15T05:50:53;9.00;93.20
4501;DHT22;2263;54.654;9.410;2023-04-15T05:53:20;9.00;93.20
4501;DHT22;2263;54.654;9.410;2023-04-15T05:55:48;8.90;93.10
4501;DHT22;2263;54.654;9.410;2023-04-15T05:58:16;9.00;93.20
4501;DHT22;2263;54.654;9.410;2023-04-15T06:00:43;8.90;93.10
4501;DHT22;2263;54.654;9.410;2023-04-15T06:03:12;8.90;93.20
4501;DHT22;2263;54.654;9.410;2023-04-15T06:05:40;9.00;93.20
4501;DHT22;2263;54.654;9.410;2023-04-15T06:08:07;9.00;93.20
4501;DHT22;2263;54.654;9.410;2023-04-15T06:10:35;8.90;93.20
4501;DHT22;2263;54.654;9.410;2023-04-15T06:13:03;8.90;93.30
4501;DHT22;2263;54.654;9.410;2023-04-15T06:15:31;9.00;93.30
4501;DHT22;2263;54.654;9.410;2023-04-15T06:17:58;8.90;93.30
4501;DHT22;2263;54.654;9.410;2023-04-15T06:20:26;9.00;93.40
4501;DHT22;2263;54.654;9.410;2023-04-15T06:22:54;8.90;93.40
4501;DHT22;2263;54.654;9.410;2023-04-15T06:25:21;9.00;93.80
4501;DHT22;2263;54.654;9.410;2023-04-15T06:27:49;9.00;93.70
4501;DHT22;2263;54.654;9.410;2023-04-15T06:30:17;8.90;93.60
4501;DHT22;2263;54.654;9.410;2023-04-15T06:32:44;9.00;93.70
4501;DHT22;2263;54.654;9.410;2023-04-15T06:35:12;9.00;94.00
4501;DHT22;2263;54.654;9.410;2023-04-15T06:37:40;9.00;93.70
4501;DHT22;2263;54.654;9.410;2023-04-15T06:40:08;9.00;93.90
4501;DHT22;2263;54.654;9.410;2023-04-15T06:42:36;9.00;93.80
4501;DHT22;2263;54.654;9.410;2023-04-15T06:45:05;9.00;94.20
4501;DHT22;2263;54.654;9.410;2023-04-15T06:47:34;9.00;93.90
4501;DHT22;2263;54.654;9.410;2023-04-15T06:50:07;9.00;94.00
4501;DHT22;2263;54.654;9.410;2023-04-15T06:52:35;9.00;94.30
4501;DHT22;2263;54.654;9.410;2023-04-15T06:55:03;9.00;94.30
4501;DHT22;2263;54.654;9.410;2023-04-15T06:57:31;9.00;94.40
4501;DHT22;2263;54.654;9.410;2023-04-15T07:00:01;9.00;94.30
4501;DHT22;2263;54.654;9.410;2023-04-15T07:02:28;9.00;94.00
4501;DHT22;2263;54.654;9.410;2023-04-15T07:04:56;9.00;94.40
4501;DHT22;2263;54.654;9.410;2023-04-15T07:07:23;9.00;94.30
4501;DHT22;2263;54.654;9.410;2023-04-15T07:09:51;9.00;94.50
4501;DHT22;2263;54.654;9.410;2023-04-15T07:12:20;9.00;94.60
4501;DHT22;2263;54.654;9.410;2023-04-15T07:14:47;9.00;94.60
4501;DHT22;2263;54.654;9.410;2023-04-15T07:17:15;9.00;94.30
4501;DHT22;2263;54.654;9.410;2023-04-15T07:19:43;9.00;94.20
4501;DHT22;2263;54.654;9.410;2023-04-15T07:22:10;9.00;94.60
4501;DHT22;2263;54.654;9.410;2023-04-15T07:24:38;9.00;94.40
4501;DHT22;2263;54.654;9.410;2023-04-15T07:27:05;9.00;94.60
4501;DHT22;2263;54.654;9.410;2023-04-15T07:29:33;9.00;94.50
4501;DHT22;2263;54.654;9.410;2023-04-15T07:32:01;9.00;94.20
4501;DHT22;2263;54.654;9.410;2023-04-15T07:34:28;9.00;94.30
4501;DHT22;2263;54.654;9.410;2023-04-15T07:36:58;9.00;94.10
4501;DHT22;2263;54.654;9.410;2023-04-15T07:39:27;9.00;94.10
4501;DHT22;2263;54.654;9.410;2023-04-15T07:41:57;9.00;94.10
4501;DHT22;2263;54.654;9.410;2023-04-15T07:44:26;9.00;94.30
4501;DHT22;2263;54.654;9.410;2023-04-15T07:46:54;9.00;94.10
4501;DHT22;2263;54.654;9.410;2023-04-15T07:49:22;9.00;94.30
4501;DHT22;2263;54.654;9.410;2023-04-15T07:51:49;9.10;94.20
4501;DHT22;2263;54.654;9.410;2023-04-15T07:54:17;9.00;94.30
4501;DHT22;2263;54.654;9.410;2023-04-15T07:56:46;9.00;94.20
4501;DHT22;2263;54.654;9.410;2023-04-15T07:59:16;9.10;94.30
4501;DHT22;2263;54.654;9.410;2023-04-15T08:01:44;9.10;94.20
4501;DHT22;2263;54.654;9.410;2023-04-15T08:04:11;9.00;94.10
4501;DHT22;2263;54.654;9.410;2023-04-15T08:06:40;9.10;94.10
4501;DHT22;2263;54.654;9.410;2023-04-15T08:09:07;9.10;94.30
4501;DHT22;2263;54.654;9.410;2023-04-15T08:11:35;9.10;94.20
4501;DHT22;2263;54.654;9.410;2023-04-15T08:14:03;9.10;94.10
4501;DHT22;2263;54.654;9.410;2023-04-15T08:16:31;9.10;94.00
4501;DHT22;2263;54.654;9.410;2023-04-15T08:18:59;9.10;94.10
4501;DHT22;2263;54.654;9.410;2023-04-15T08:21:27;9.10;94.20
4501;DHT22;2263;54.654;9.410;2023-04-15T08:23:57;9.10;94.10
4501;DHT22;2263;54.654;9.410;2023-04-15T08:26:27;9.10;94.10
4501;DHT22;2263;54.654;9.410;2023-04-15T08:28:55;9.10;94.10
4501;DHT22;2263;54.654;9.410;2023-04-15T08:31:25;9.10;94.20
4501;DHT22;2263;54.654;9.410;2023-04-15T08:33:56;9.10;94.20
4501;DHT22;2263;54.654;9.410;2023-04-15T08:36:23;9.10;94.10
4501;DHT22;2263;54.654;9.410;2023-04-15T08:38:51;9.10;94.20
4501;DHT22;2263;54.654;9.410;2023-04-15T08:41:24;9.10;94.10
4501;DHT22;2263;54.654;9.410;2023-04-15T08:44:03;9.10;94.10
4501;DHT22;2263;54.654;9.410;2023-04-15T08:46:31;9.10;94.20
4501;DHT22;2263;54.654;9.410;2023-04-15T08:49:04;9.10;94.20
4501;DHT22;2263;54.654;9.410;2023-04-15T08:51:31;9.10;94.20
4501;DHT22;2263;54.654;9.410;2023-04-15T08:54:01;9.10;94.30
4501;DHT22;2263;54.654;9.410;2023-04-15T08:56:30;9.10;94.20
4501;DHT22;2263;54.654;9.410;2023-04-15T08:59:01;9.20;94.20
4501;DHT22;2263;54.654;9.410;2023-04-15T09:01:31;9.10;94.20
4501;DHT22;2263;54.654;9.410;2023-04-15T09:04:02;9.10;94.20
4501;DHT22;2263;54.654;9.410;2023-04-15T09:06:30;9.10;94.20
4501;DHT22;2263;54.654;9.410;2023-04-15T09:08:57;9.10;94.10
4501;DHT22;2263;54.654;9.410;2023-04-15T09:11:25;9.10;94.10
4501;DHT22;2263;54.654;9.410;2023-04-15T09:13:53;9.20;94.20
4501;DHT22;2263;54.654;9.410;2023-04-15T09:16:20;9.10;94.20
4501;DHT22;2263;54.654;9.410;2023-04-15T09:18:48;9.10;94.20
4501;DHT22;2263;54.654;9.410;2023-04-15T09:21:16;9.10;94.10
4501;DHT22;2263;54.654;9.410;2023-04-15T09:23:59;9.10;94.20
4501;DHT22;2263;54.654;9.410;2023-04-15T09:26:35;9.20;94.40
4501;DHT22;2263;54.654;9.410;2023-04-15T09:29:08;9.10;94.20
4501;DHT22;2263;54.654;9.410;2023-04-15T09:31:36;9.20;94.30
4501;DHT22;2263;54.654;9.410;2023-04-15T09:34:04;9.20;94.30
4501;DHT22;2263;54.654;9.410;2023-04-15T09:39:18;9.20;94.30
4501;DHT22;2263;54.654;9.410;2023-04-15T09:41:45;9.20;94.30
4501;DHT22;2263;54.654;9.410;2023-04-15T09:44:23;9.20;94.20
4501;DHT22;2263;54.654;9.410;2023-04-15T09:46:52;9.20;94.30
4501;DHT22;2263;54.654;9.410;2023-04-15T09:49:19;9.20;94.30
4501;DHT22;2263;54.654;9.410;2023-04-15T09:51:47;9.20;94.20
4501;DHT22;2263;54.654;9.410;2023-04-15T09:54:37;9.20;94.30
4501;DHT22;2263;54.654;9.410;2023-04-15T09:57:08;9.20;94.30
4501;DHT22;2263;54.654;9.410;2023-04-15T09:59:39;9.20;94.30
4501;DHT22;2263;54.654;9.410;2023-04-15T10:02:07;9.30;94.40
4501;DHT22;2263;54.654;9.410;2023-04-15T10:04:37;9.30;94.40
4501;DHT22;2263;54.654;9.410;2023-04-15T10:07:07;9.30;94.40
4501;DHT22;2263;54.654;9.410;2023-04-15T10:09:39;9.30;94.40
4501;DHT22;2263;54.654;9.410;2023-04-15T10:12:08;9.30;94.40
4501;DHT22;2263;54.654;9.410;2023-04-15T10:14:37;9.30;94.50
4501;DHT22;2263;54.654;9.410;2023-04-15T10:17:05;9.30;94.50
4501;DHT22;2263;54.654;9.410;2023-04-15T10:19:37;9.30;94.50
4501;DHT22;2263;54.654;9.410;2023-04-15T10:22:05;9.30;94.50
4501;DHT22;2263;54.654;9.410;2023-04-15T10:24:34;9.40;94.50
4501;DHT22;2263;54.654;9.410;2023-04-15T10:27:03;9.40;94.60
4501;DHT22;2263;54.654;9.410;2023-04-15T10:29:31;9.40;94.60
4501;DHT22;2263;54.654;9.410;2023-04-15T10:32:00;9.40;94.70
4501;DHT22;2263;54.654;9.410;2023-04-15T10:34:34;9.40;94.60
4501;DHT22;2263;54.654;9.410;2023-04-15T10:37:02;9.50;94.70
4501;DHT22;2263;54.654;9.410;2023-04-15T10:42:15;9.60;94.80
4501;DHT22;2263;54.654;9.410;2023-04-15T10:44:48;9.60;94.70
4501;DHT22;2263;54.654;9.410;2023-04-15T10:47:19;9.60;94.80
4501;DHT22;2263;54.654;9.410;2023-04-15T10:49:54;9.70;94.90
4501;DHT22;2263;54.654;9.410;2023-04-15T10:52:25;9.70;94.80
4501;DHT22;2263;54.654;9.410;2023-04-15T10:55:15;9.70;94.80
4501;DHT22;2263;54.654;9.410;2023-04-15T10:57:45;9.70;94.90
4501;DHT22;2263;54.654;9.410;2023-04-15T11:00:17;9.80;94.90
4501;DHT22;2263;54.654;9.410;2023-04-15T11:03:13;9.80;94.80
4501;DHT22;2263;54.654;9.410;2023-04-15T11:08:12;9.80;94.80
4501;DHT22;2263;54.654;9.410;2023-04-15T11:15:45;9.90;95.10
4501;DHT22;2263;54.654;9.410;2023-04-15T11:18:20;10.00;94.80
4501;DHT22;2263;54.654;9.410;2023-04-15T11:21:03;10.10;94.80
4501;DHT22;2263;54.654;9.410;2023-04-15T11:23:40;10.10;95.00
4501;DHT22;2263;54.654;9.410;2023-04-15T11:26:13;10.20;95.00
4501;DHT22;2263;54.654;9.410;2023-04-15T11:28:44;10.20;95.00
4501;DHT22;2263;54.654;9.410;2023-04-15T11:31:14;10.30;95.00
4501;DHT22;2263;54.654;9.410;2023-04-15T11:33:53;10.30;95.10
4501;DHT22;2263;54.654;9.410;2023-04-15T11:36:24;10.30;95.10
4501;DHT22;2263;54.654;9.410;2023-04-15T11:38:54;10.40;95.00
4501;DHT22;2263;54.654;9.410;2023-04-15T11:41:22;10.40;94.90
4501;DHT22;2263;54.654;9.410;2023-04-15T11:43:51;10.50;95.20
4501;DHT22;2263;54.654;9.410;2023-04-15T11:46:20;10.50;95.10
4501;DHT22;2263;54.654;9.410;2023-04-15T11:48:49;10.60;95.20
4501;DHT22;2263;54.654;9.410;2023-04-15T11:51:16;10.60;95.30
4501;DHT22;2263;54.654;9.410;2023-04-15T11:53:48;10.60;95.20
4501;DHT22;2263;54.654;9.410;2023-04-15T11:56:24;10.70;95.20
4501;DHT22;2263;54.654;9.410;2023-04-15T11:58:57;10.70;95.30
4501;DHT22;2263;54.654;9.410;2023-04-15T12:01:32;10.80;95.20
4501;DHT22;2263;54.654;9.410;2023-04-15T12:04:00;10.80;95.40
4501;DHT22;2263;54.654;9.410;2023-04-15T12:06:33;10.80;95.40
4501;DHT22;2263;54.654;9.410;2023-04-15T12:09:16;10.80;95.40
4501;DHT22;2263;54.654;9.410;2023-04-15T12:11:48;10.90;95.50
4501;DHT22;2263;54.654;9.410;2023-04-15T12:16:54;11.00;95.60
4501;DHT22;2263;54.654;9.410;2023-04-15T12:19:29;11.00;95.40
4501;DHT22;2263;54.654;9.410;2023-04-15T12:24:31;11.10;95.50
4501;DHT22;2263;54.654;9.410;2023-04-15T12:27:07;11.10;95.50
4501;DHT22;2263;54.654;9.410;2023-04-15T12:29:36;11.20;95.50
4501;DHT22;2263;54.654;9.410;2023-04-15T12:32:06;11.20;95.40
4501;DHT22;2263;54.654;9.410;2023-04-15T12:34:41;11.20;95.40
4501;DHT22;2263;54.654;9.410;2023-04-15T12:37:11;11.30;95.50
4501;DHT22;2263;54.654;9.410;2023-04-15T12:39:41;11.30;95.50
4501;DHT22;2263;54.654;9.410;2023-04-15T12:42:10;11.30;95.50
4501;DHT22;2263;54.654;9.410;2023-04-15T12:44:38;11.40;95.50
4501;DHT22;2263;54.654;9.410;2023-04-15T12:47:10;11.40;95.40
4501;DHT22;2263;54.654;9.410;2023-04-15T12:49:40;11.40;95.40
4501;DHT22;2263;54.654;9.410;2023-04-15T12:52:08;11.40;95.40
4501;DHT22;2263;54.654;9.410;2023-04-15T12:54:35;11.50;95.40
4501;DHT22;2263;54.654;9.410;2023-04-15T12:57:03;11.40;95.20
4501;DHT22;2263;54.654;9.410;2023-04-15T12:59:34;11.50;95.30
4501;DHT22;2263;54.654;9.410;2023-04-15T13:02:03;11.50;95.10
4501;DHT22;2263;54.654;9.410;2023-04-15T13:04:31;11.50;95.10
4501;DHT22;2263;54.654;9.410;2023-04-15T13:06:59;11.60;95.30
4501;DHT22;2263;54.654;9.410;2023-04-15T13:09:27;11.60;95.30
4501;DHT22;2263;54.654;9.410;2023-04-15T13:11:55;11.60;95.30
4501;DHT22;2263;54.654;9.410;2023-04-15T13:14:23;11.60;95.00
4501;DHT22;2263;54.654;9.410;2023-04-15T13:16:51;11.60;95.10
4501;DHT22;2263;54.654;9.410;2023-04-15T13:19:20;11.60;95.10
4501;DHT22;2263;54.654;9.410;2023-04-15T13:21:47;11.70;95.30
4501;DHT22;2263;54.654;9.410;2023-04-15T13:24:15;11.70;95.30
4501;DHT22;2263;54.654;9.410;2023-04-15T13:26:42;11.70;95.30
4501;DHT22;2263;54.654;9.410;2023-04-15T13:29:10;11.70;95.20
4501;DHT22;2263;54.654;9.410;2023-04-15T13:31:38;11.80;95.20
4501;DHT22;2263;54.654;9.410;2023-04-15T13:34:06;11.80;95.20
4501;DHT22;2263;54.654;9.410;2023-04-15T13:36:33;11.80;95.10
4501;DHT22;2263;54.654;9.410;2023-04-15T13:39:01;11.80;95.10
4501;DHT22;2263;54.654;9.410;2023-04-15T13:41:29;11.80;95.00
4501;DHT22;2263;54.654;9.410;2023-04-15T13:43:57;11.80;95.00
4501;DHT22;2263;54.654;9.410;2023-04-15T13:46:25;11.90;95.10
4501;DHT22;2263;54.654;9.410;2023-04-15T13:48:52;11.90;95.20
4501;DHT22;2263;54.654;9.410;2023-04-15T13:51:20;11.90;94.90
4501;DHT22;2263;54.654;9.410;2023-04-15T13:53:48;11.90;95.00
4501;DHT22;2263;54.654;9.410;2023-04-15T13:56:15;11.90;94.90
4501;DHT22;2263;54.654;9.410;2023-04-15T13:58:43;11.90;94.90
4501;DHT22;2263;54.654;9.410;2023-04-15T14:01:10;11.90;94.90
4501;DHT22;2263;54.654;9.410;2023-04-15T14:03:38;11.90;94.80
4501;DHT22;2263;54.654;9.410;2023-04-15T14:06:06;11.90;94.70
4501;DHT22;2263;54.654;9.410;2023-04-15T14:08:33;11.90;94.60
4501;DHT22;2263;54.654;9.410;2023-04-15T14:11:01;11.90;94.70
4501;DHT22;2263;54.654;9.410;2023-04-15T14:13:29;11.90;94.70
4501;DHT22;2263;54.654;9.410;2023-04-15T14:15:57;11.90;94.60
4501;DHT22;2263;54.654;9.410;2023-04-15T14:18:25;11.90;94.50
4501;DHT22;2263;54.654;9.410;2023-04-15T14:20:52;11.90;94.60
4501;DHT22;2263;54.654;9.410;2023-04-15T14:23:21;11.90;94.60
4501;DHT22;2263;54.654;9.410;2023-04-15T14:25:49;11.90;94.40
4501;DHT22;2263;54.654;9.410;2023-04-15T14:28:18;12.00;94.60
4501;DHT22;2263;54.654;9.410;2023-04-15T14:30:45;12.20;94.30
4501;DHT22;2263;54.654;9.410;2023-04-15T14:33:13;12.50;94.20
4501;DHT22;2263;54.654;9.410;2023-04-15T14:35:40;12.60;94.10
4501;DHT22;2263;54.654;9.410;2023-04-15T14:38:08;12.80;94.10
4501;DHT22;2263;54.654;9.410;2023-04-15T14:40:37;12.80;94.00
4501;DHT22;2263;54.654;9.410;2023-04-15T14:43:05;12.90;94.10
4501;DHT22;2263;54.654;9.410;2023-04-15T14:45:34;12.90;94.00
4501;DHT22;2263;54.654;9.410;2023-04-15T14:48:02;13.00;94.10
4501;DHT22;2263;54.654;9.410;2023-04-15T14:50:30;13.10;94.20
4501;DHT22;2263;54.654;9.410;2023-04-15T14:52:58;13.20;94.20
4501;DHT22;2263;54.654;9.410;2023-04-15T14:55:26;13.20;94.20
4501;DHT22;2263;54.654;9.410;2023-04-15T14:57:55;13.20;94.10
4501;DHT22;2263;54.654;9.410;2023-04-15T15:00:23;13.30;94.30
4501;DHT22;2263;54.654;9.410;2023-04-15T15:02:50;13.30;94.20
4501;DHT22;2263;54.654;9.410;2023-04-15T15:05:21;13.40;94.30
4501;DHT22;2263;54.654;9.410;2023-04-15T15:07:49;13.50;94.40
4501;DHT22;2263;54.654;9.410;2023-04-15T15:10:16;13.50;94.40
4501;DHT22;2263;54.654;9.410;2023-04-15T15:13:06;13.50;94.30
4501;DHT22;2263;54.654;9.410;2023-04-15T15:15:35;13.50;94.20
4501;DHT22;2263;54.654;9.410;2023-04-15T15:18:03;13.50;94.40
4501;DHT22;2263;54.654;9.410;2023-04-15T15:20:31;13.60;94.30
4501;DHT22;2263;54.654;9.410;2023-04-15T15:23:00;13.60;94.30
4501;DHT22;2263;54.654;9.410;2023-04-15T15:25:27;13.60;94.30
4501;DHT22;2263;54.654;9.410;2023-04-15T15:27:56;13.60;94.20
4501;DHT22;2263;54.654;9.410;2023-04-15T15:30:24;13.60;94.20
4501;DHT22;2263;54.654;9.410;2023-04-15T15:32:51;13.60;94.20
4501;DHT22;2263;54.654;9.410;2023-04-15T15:35:19;13.60;94.20
4501;DHT22;2263;54.654;9.410;2023-04-15T15:37:49;13.60;94.20
4501;DHT22;2263;54.654;9.410;2023-04-15T15:40:16;13.60;94.20
4501;DHT22;2263;54.654;9.410;2023-04-15T15:42:44;13.60;94.20
4501;DHT22;2263;54.654;9.410;2023-04-15T15:45:13;13.60;94.10
4501;DHT22;2263;54.654;9.410;2023-04-15T15:47:41;13.60;94.10
4501;DHT22;2263;54.654;9.410;2023-04-15T15:50:12;13.60;94.10
4501;DHT22;2263;54.654;9.410;2023-04-15T15:52:39;13.60;94.10
4501;DHT22;2263;54.654;9.410;2023-04-15T15:55:07;13.60;94.00
4501;DHT22;2263;54.654;9.410;2023-04-15T15:57:35;13.60;94.00
4501;DHT22;2263;54.654;9.410;2023-04-15T16:00:03;13.60;94.10
4501;DHT22;2263;54.654;9.410;2023-04-15T16:02:38;13.70;94.10
4501;DHT22;2263;54.654;9.410;2023-04-15T16:05:26;13.70;94.00
4501;DHT22;2263;54.654;9.410;2023-04-15T16:07:54;13.70;94.00
4501;DHT22;2263;54.654;9.410;2023-04-15T16:10:21;13.70;94.00
4501;DHT22;2263;54.654;9.410;2023-04-15T16:12:49;13.70;93.90
4501;DHT22;2263;54.654;9.410;2023-04-15T16:15:17;13.70;93.90
4501;DHT22;2263;54.654;9.410;2023-04-15T16:17:44;13.70;93.90
4501;DHT22;2263;54.654;9.410;2023-04-15T16:20:12;13.70;93.90
4501;DHT22;2263;54.654;9.410;2023-04-15T16:22:39;13.70;93.90
4501;DHT22;2263;54.654;9.410;2023-04-15T16:25:07;13.70;93.80
4501;DHT22;2263;54.654;9.410;2023-04-15T16:27:35;13.70;93.80
4501;DHT22;2263;54.654;9.410;2023-04-15T16:30:23;13.70;93.80
4501;DHT22;2263;54.654;9.410;2023-04-15T16:32:50;13.70;93.70
4501;DHT22;2263;54.654;9.410;2023-04-15T16:35:18;13.70;93.70
4501;DHT22;2263;54.654;9.410;2023-04-15T16:37:46;13.70;93.60
4501;DHT22;2263;54.654;9.410;2023-04-15T16:40:14;13.70;93.70
4501;DHT22;2263;54.654;9.410;2023-04-15T16:42:41;13.70;93.60
4501;DHT22;2263;54.654;9.410;2023-04-15T16:45:12;13.70;93.60